Vaassen, Netherlands
Current Conditions -  °F | °C
As of 3:25 PM on Tuesday 21 Oct 2014 (Local Time) from EHDL Reporting Station
Rain Showers Rain Showers  
Wind Chill: 12°   Ceiling: 1200
Heat Index: 12°   Visibility: 4mi
Dew Point: 12°   Wind: 14mph
Humidity: 100%   Direction: 270°W
Pressure: 29.44"   Gusts: NA
Location:  52.29°N, 5.97°E
Report Text: EHDL 211325Z AUTO 27012KT 6000 SHRA FEW005 SCT009 BKN012 12/12 Q0997 GRN
Loading
Personal Weather Stations






























Interactive Weather Map
Tropical Storm Tracking
New forecast layout! Learn more

10-Day Weather Forecast

Advertisements
Track Severe Weather on mobile